This is the latest recevied weather packets stored in our database for station/object N9XTN-3. If no packets are shown the sender has not sent any weather packets the latest 10 day(s).
| Time | Temp. | Humidity | Pressure | Rain* | Wind** | Luminosity | Snow |
|---|---|---|---|---|---|---|---|
| 1778128837 | 8.33° C | 64% | 1014.7 hPa | 0 mm | - | - | - |
| 1778127917 | 7.78° C | 66% | 1014.9 hPa | 0 mm | - | - | - |
| 1778127317 | 7.22° C | 62% | 1014.8 hPa | 0 mm | - | - | - |
| 1778126117 | 7.22° C | 62% | 1014.9 hPa | 0 mm | - | - | - |
| 1778123417 | 8.89° C | 49% | 1015.2 hPa | 0 mm | - | - | - |
| 1778123137 | 8.89° C | 50% | 1015.2 hPa | 0 mm | - | - | - |
| 1778118917 | 11.11° C | 39% | 1014.7 hPa | 0 mm | - | - | - |
| 1778118017 | 11.11° C | 38% | 1014.8 hPa | 0 mm | - | - | - |
| 1778117417 | 11.67° C | 38% | 1014.8 hPa | 0 mm | - | - | - |
| 1778115317 | 14.44° C | 29% | 1014.8 hPa | 0 mm | - | - | - |
| 1778113217 | 15.56° C | 26% | 1015 hPa | 0 mm | - | - | - |
| 1778112917 | 15.56° C | 26% | 1015 hPa | 0 mm | - | - | - |
| 1778109337 | 15.56° C | 26% | 1015.3 hPa | 0 mm | - | - | - |
| 1778106617 | 16.11° C | 26% | 1015.8 hPa | 0 mm | - | - | - |
| 1778105717 | 16.11° C | 25% | 1015.9 hPa | 0 mm | - | - | - |
| 1778104817 | 16.11° C | 26% | 1016.1 hPa | 0 mm | - | - | - |
| 1778104517 | 16.11° C | 25% | 1016.2 hPa | 0 mm | - | - | - |
| 1778104217 | 16.11° C | 27% | 1016.2 hPa | 0 mm | - | - | - |
| 1778103917 | 16.11° C | 27% | 1016.3 hPa | 0 mm | - | - | - |
| 1778102717 | 15° C | 27% | 1016.5 hPa | 0 mm | - | - | - |
| 1778101817 | 15° C | 28% | 1016.7 hPa | 0 mm | - | - | - |
| 1778100017 | 15.56° C | 27% | 1017.2 hPa | 0 mm | - | - | - |
| 1778094017 | 14.44° C | 32% | 1017.9 hPa | 0 mm | - | - | - |
| 1778093117 | 13.89° C | 32% | 1018.1 hPa | 0 mm | - | - | - |
| 1778092817 | 13.89° C | 33% | 1018.1 hPa | 0 mm | - | - | - |
* Rain latest hour (hover to see other rain measurements)
** Current wind speed in m/s (hover to see current wind gust speed)